This is the latest recevied weather packets stored in our database for station/object EA1GEC-10. If no packets are shown the sender has not sent any weather packets the latest 10 day(s).
| Time | Temp. | Humidity | Pressure | Rain* | Wind** | Luminosity | Snow |
|---|---|---|---|---|---|---|---|
| 1778184574 | 11.67° C | 72% | 1017.6 hPa | - | - | - | - |
| 1778183678 | 12.22° C | 72% | 1017.5 hPa | - | - | - | - |
| 1778182774 | 12.22° C | 71% | 1017.6 hPa | - | - | - | - |
| 1778181874 | 12.22° C | 70% | 1017.6 hPa | - | - | - | - |
| 1778180974 | 12.78° C | 69% | 1017.7 hPa | - | - | - | - |
| 1778180074 | 12.78° C | 69% | 1017.6 hPa | - | - | - | - |
| 1778179174 | 12.78° C | 69% | 1017.4 hPa | - | - | - | - |
| 1778178274 | 13.33° C | 68% | 1017.4 hPa | - | - | - | - |
| 1778177374 | 13.89° C | 69% | 1017.4 hPa | - | - | - | - |
| 1778176474 | 13.33° C | 69% | 1017.5 hPa | - | - | - | - |
| 1778175574 | 13.33° C | 70% | 1017.1 hPa | - | - | - | - |
| 1778174683 | 12.78° C | 70% | 1017.1 hPa | - | - | - | - |
| 1778169676 | 14.44° C | 60% | 1016.3 hPa | - | - | - | - |
| 1778167885 | 14.44° C | 57% | 1015.9 hPa | - | - | - | - |
| 1778166976 | 14.44° C | 56% | 1015.6 hPa | - | - | - | - |
| 1778166075 | 15° C | 54% | 1015.6 hPa | - | - | - | - |
| 1778165175 | 16.67° C | 51% | 1015.8 hPa | - | - | - | - |
| 1778164275 | 16.67° C | 51% | 1016 hPa | - | - | - | - |
| 1778163375 | 16.67° C | 49% | 1016.1 hPa | - | - | - | - |
| 1778162475 | 17.78° C | 47% | 1016.2 hPa | - | - | - | - |
| 1778161575 | 17.78° C | 45% | 1016.3 hPa | - | - | - | - |
| 1778160675 | 18.89° C | 41% | 1016.2 hPa | - | - | - | - |
| 1778159784 | 27.78° C | 32% | 1016.3 hPa | - | - | - | - |
| 1778158884 | 30.56° C | 34% | 1016.5 hPa | - | - | - | - |
| 1778157975 | 28.33° C | 40% | 1016.8 hPa | - | - | - | - |
* Rain since midnight (hover to see other rain measurements)
** Current wind speed in m/s (hover to see current wind gust speed)